STT9099 VTSP-OEMA
Flight info
| Callsign | STT9099 |
|---|---|
| Flight time | N/A |
| Altitude | 28000 |
| Route | UBNEN1B UBNEN L645 SAMAK DCT LAGOG N571 VUSET T500 MCT T506 TULBU M628 MIGMA M550 MEVDO Y511 ELONU |
| Aircraft | A346/H-SDE2E3FGHIJ3J4J5M1RWXY/LB1D1 |
Departure
| Time | N/A |
|---|---|
| Airport | Phuket International Airport (VTSP) |
Arrival
| Time | 2026-05-08 17:49 |
|---|---|
| Airport | Prince Mohammad Bin Abdulaziz Airport (OEMA) |
| Time | Latitude | Longitude | Altitude | Speed | Heading |
|---|---|---|---|---|---|
| 2026-05-08 15:37 | 22.54411 | 53.73513 | 9042 ft | 287 kts | 278° |
| 2026-05-08 15:37 | 22.55699 | 53.64018 | 11684 ft | 345 kts | 276° |
| 2026-05-08 15:38 | 22.57471 | 53.51099 | 15114 ft | 376 kts | 275° |
| 2026-05-08 15:38 | 22.59405 | 53.36907 | 17449 ft | 427 kts | 276° |
| 2026-05-08 15:38 | 22.61428 | 53.22091 | 20377 ft | 440 kts | 276° |
| 2026-05-08 15:38 | 22.63387 | 53.07633 | 22973 ft | 452 kts | 276° |
| 2026-05-08 15:39 | 22.63620 | 53.05905 | 23266 ft | 454 kts | 276° |
| 2026-05-08 15:39 | 22.63848 | 53.04215 | 23519 ft | 456 kts | 276° |
| 2026-05-08 15:39 | 22.64078 | 53.02509 | 23745 ft | 457 kts | 276° |
| 2026-05-08 15:39 | 22.64311 | 53.00775 | 23980 ft | 459 kts | 276° |
| 2026-05-08 15:40 | 22.64538 | 52.99088 | 24210 ft | 461 kts | 276° |
| 2026-05-08 15:40 | 22.64769 | 52.97367 | 24451 ft | 462 kts | 276° |
| 2026-05-08 15:40 | 22.65000 | 52.95640 | 24698 ft | 463 kts | 276° |
| 2026-05-08 15:40 | 22.65231 | 52.93917 | 24942 ft | 465 kts | 276° |
| 2026-05-08 15:41 | 22.65463 | 52.92177 | 25191 ft | 466 kts | 276° |
| 2026-05-08 15:41 | 22.65696 | 52.90434 | 25429 ft | 468 kts | 276° |
| 2026-05-08 15:41 | 22.65929 | 52.88690 | 25669 ft | 469 kts | 276° |
| 2026-05-08 15:41 | 22.66163 | 52.86937 | 25912 ft | 470 kts | 276° |
| 2026-05-08 15:42 | 22.66397 | 52.85177 | 26158 ft | 472 kts | 276° |
| 2026-05-08 15:42 | 22.66632 | 52.83413 | 26391 ft | 473 kts | 276° |
| 2026-05-08 15:42 | 22.66868 | 52.81644 | 26629 ft | 475 kts | 276° |
| 2026-05-08 15:42 | 22.67103 | 52.79871 | 26867 ft | 476 kts | 276° |
| 2026-05-08 15:43 | 22.67340 | 52.78092 | 27105 ft | 478 kts | 276° |
| 2026-05-08 15:43 | 22.67577 | 52.76304 | 27347 ft | 479 kts | 276° |
| 2026-05-08 15:43 | 22.67815 | 52.74517 | 27587 ft | 481 kts | 276° |
| 2026-05-08 15:43 | 22.68053 | 52.72719 | 27820 ft | 482 kts | 276° |
| 2026-05-08 15:44 | 22.68292 | 52.70914 | 28061 ft | 483 kts | 276° |
| 2026-05-08 15:44 | 22.68531 | 52.69111 | 28307 ft | 485 kts | 276° |
| 2026-05-08 15:44 | 22.68770 | 52.67298 | 28551 ft | 486 kts | 275° |
| 2026-05-08 15:44 | 22.69010 | 52.65485 | 28849 ft | 486 kts | 275° |
| 2026-05-08 15:45 | 22.69250 | 52.63675 | 29183 ft | 484 kts | 275° |
| 2026-05-08 15:45 | 22.69488 | 52.61871 | 29565 ft | 483 kts | 275° |
| 2026-05-08 15:45 | 22.69726 | 52.60070 | 29934 ft | 481 kts | 275° |
| 2026-05-08 15:45 | 22.69963 | 52.58276 | 30246 ft | 480 kts | 275° |
| 2026-05-08 15:46 | 22.70199 | 52.56488 | 30572 ft | 478 kts | 275° |
| 2026-05-08 15:46 | 22.70433 | 52.54708 | 30902 ft | 476 kts | 275° |
| 2026-05-08 15:46 | 22.70666 | 52.52938 | 31220 ft | 474 kts | 275° |
| 2026-05-08 15:46 | 22.70898 | 52.51167 | 31548 ft | 472 kts | 275° |
| 2026-05-08 15:47 | 22.71129 | 52.49408 | 31859 ft | 471 kts | 275° |
| 2026-05-08 15:47 | 22.71359 | 52.47649 | 32162 ft | 470 kts | 275° |
| 2026-05-08 15:47 | 22.71609 | 52.45736 | 32473 ft | 469 kts | 275° |
| 2026-05-08 15:47 | 22.73732 | 52.29453 | 34812 ft | 461 kts | 275° |
| 2026-05-08 15:48 | 22.75794 | 52.13526 | 36580 ft | 457 kts | 275° |
| 2026-05-08 15:48 | 22.76214 | 52.10098 | 36817 ft | 457 kts | 271° |
| 2026-05-08 15:48 | 22.76408 | 52.04835 | 37190 ft | 457 kts | 268° |
| 2026-05-08 15:49 | 22.76581 | 51.94328 | 37872 ft | 461 kts | 268° |
| 2026-05-08 15:49 | 22.76724 | 51.87280 | 37860 ft | 469 kts | 268° |
| 2026-05-08 15:50 | 22.76880 | 51.80292 | 37859 ft | 461 kts | 268° |
| 2026-05-08 15:50 | 22.76950 | 51.73344 | 38264 ft | 458 kts | 262° |
| 2026-05-08 15:50 | 22.76613 | 51.69935 | 38602 ft | 454 kts | 260° |
| 2026-05-08 15:51 | 22.76209 | 51.66555 | 38842 ft | 452 kts | 259° |
| 2026-05-08 15:51 | 22.75799 | 51.63190 | 39038 ft | 451 kts | 260° |
| 2026-05-08 15:51 | 22.75392 | 51.59808 | 39213 ft | 451 kts | 260° |
| 2026-05-08 15:51 | 22.74993 | 51.56436 | 39397 ft | 451 kts | 260° |
| 2026-05-08 15:52 | 22.74601 | 51.53069 | 39576 ft | 450 kts | 260° |
| 2026-05-08 15:52 | 22.74210 | 51.49702 | 39741 ft | 450 kts | 260° |
| 2026-05-08 15:52 | 22.73816 | 51.46302 | 39838 ft | 450 kts | 260° |
| 2026-05-08 15:53 | 22.73042 | 51.39599 | 39845 ft | 449 kts | 260° |
| 2026-05-08 15:53 | 22.72266 | 51.32889 | 39850 ft | 449 kts | 260° |
| 2026-05-08 15:54 | 22.71488 | 51.26169 | 39853 ft | 449 kts | 260° |
| 2026-05-08 15:54 | 22.70707 | 51.19456 | 39852 ft | 449 kts | 259° |
| 2026-05-08 15:55 | 22.69924 | 51.12740 | 39849 ft | 449 kts | 259° |
| 2026-05-08 15:55 | 22.68743 | 51.02662 | 39851 ft | 449 kts | 259° |
| 2026-05-08 15:56 | 22.67955 | 50.95966 | 39850 ft | 449 kts | 259° |
| 2026-05-08 15:56 | 22.67162 | 50.89252 | 39848 ft | 449 kts | 259° |
| 2026-05-08 15:57 | 22.66369 | 50.82565 | 39854 ft | 449 kts | 259° |
| 2026-05-08 15:57 | 22.65570 | 50.75852 | 39854 ft | 449 kts | 259° |
| 2026-05-08 15:58 | 22.64771 | 50.69161 | 39854 ft | 449 kts | 259° |
| 2026-05-08 15:58 | 22.63967 | 50.62457 | 39855 ft | 448 kts | 259° |
| 2026-05-08 15:59 | 22.63162 | 50.55761 | 39856 ft | 447 kts | 259° |
| 2026-05-08 15:59 | 22.62356 | 50.49080 | 39856 ft | 447 kts | 259° |
| 2026-05-08 16:00 | 22.61548 | 50.42411 | 39858 ft | 447 kts | 259° |
| 2026-05-08 16:00 | 22.60739 | 50.35757 | 39860 ft | 446 kts | 259° |
| 2026-05-08 16:01 | 22.59929 | 50.29116 | 39860 ft | 446 kts | 259° |
| 2026-05-08 16:01 | 22.59119 | 50.22499 | 39862 ft | 446 kts | 259° |
| 2026-05-08 16:02 | 22.58306 | 50.15867 | 39863 ft | 445 kts | 259° |
| 2026-05-08 16:02 | 22.57490 | 50.09239 | 39860 ft | 445 kts | 259° |
| 2026-05-08 16:03 | 22.56669 | 50.02596 | 39860 ft | 445 kts | 259° |
| 2026-05-08 16:03 | 22.55846 | 49.95958 | 39862 ft | 445 kts | 259° |
| 2026-05-08 16:04 | 22.55019 | 49.89308 | 39859 ft | 445 kts | 259° |
| 2026-05-08 16:04 | 22.54234 | 49.82659 | 39859 ft | 446 kts | 261° |
| 2026-05-08 16:05 | 22.53920 | 49.75928 | 39859 ft | 448 kts | 266° |
| 2026-05-08 16:05 | 22.54214 | 49.69193 | 39859 ft | 452 kts | 271° |
| 2026-05-08 16:06 | 22.54846 | 49.62456 | 39859 ft | 452 kts | 272° |
| 2026-05-08 16:06 | 22.55495 | 49.55659 | 39862 ft | 452 kts | 272° |
| 2026-05-08 16:07 | 22.56135 | 49.48927 | 39865 ft | 452 kts | 271° |
| 2026-05-08 16:07 | 22.56661 | 49.43349 | 39866 ft | 451 kts | 271° |
| 2026-05-08 16:08 | 22.57402 | 49.35442 | 39859 ft | 451 kts | 271° |
| 2026-05-08 16:08 | 22.58033 | 49.28680 | 39871 ft | 451 kts | 271° |
| 2026-05-08 16:09 | 22.58554 | 49.23069 | 39864 ft | 450 kts | 271° |
| 2026-05-08 16:09 | 22.59284 | 49.15168 | 39862 ft | 450 kts | 271° |
| 2026-05-08 16:10 | 22.59905 | 49.08415 | 39869 ft | 450 kts | 271° |
| 2026-05-08 16:10 | 22.60524 | 49.01656 | 39868 ft | 451 kts | 271° |
| 2026-05-08 16:11 | 22.61141 | 48.94882 | 39868 ft | 451 kts | 271° |
| 2026-05-08 16:11 | 22.61754 | 48.88122 | 39867 ft | 451 kts | 271° |
| 2026-05-08 16:12 | 22.62366 | 48.81364 | 39872 ft | 450 kts | 271° |
| 2026-05-08 16:12 | 22.62972 | 48.74619 | 39868 ft | 450 kts | 271° |
| 2026-05-08 16:13 | 22.63574 | 48.67871 | 39870 ft | 450 kts | 271° |
| 2026-05-08 16:13 | 22.64176 | 48.61120 | 39873 ft | 449 kts | 271° |
| 2026-05-08 16:14 | 22.64773 | 48.54379 | 39870 ft | 449 kts | 271° |
| 2026-05-08 16:14 | 22.65266 | 48.48784 | 39870 ft | 449 kts | 270° |
| 2026-05-08 16:15 | 22.65953 | 48.40955 | 39878 ft | 448 kts | 270° |
| 2026-05-08 16:15 | 22.66446 | 48.35320 | 39877 ft | 448 kts | 270° |
| 2026-05-08 16:16 | 22.67030 | 48.28594 | 39873 ft | 448 kts | 270° |
| 2026-05-08 16:16 | 22.67614 | 48.21870 | 39886 ft | 447 kts | 270° |
| 2026-05-08 16:17 | 22.68192 | 48.15184 | 39875 ft | 445 kts | 270° |
| 2026-05-08 16:17 | 22.68763 | 48.08505 | 39871 ft | 445 kts | 270° |
| 2026-05-08 16:18 | 22.69331 | 48.01826 | 39876 ft | 445 kts | 270° |
| 2026-05-08 16:18 | 22.69891 | 47.95163 | 39879 ft | 443 kts | 270° |
| 2026-05-08 16:19 | 22.70445 | 47.88541 | 39884 ft | 443 kts | 270° |
| 2026-05-08 16:19 | 22.70999 | 47.81884 | 39882 ft | 443 kts | 270° |
| 2026-05-08 16:20 | 22.71552 | 47.75233 | 39890 ft | 442 kts | 270° |
| 2026-05-08 16:20 | 22.72100 | 47.68598 | 39891 ft | 441 kts | 270° |
| 2026-05-08 16:21 | 22.72646 | 47.61967 | 39897 ft | 440 kts | 270° |
| 2026-05-08 16:21 | 22.73186 | 47.55367 | 39896 ft | 438 kts | 270° |
| 2026-05-08 16:22 | 22.73721 | 47.48792 | 39900 ft | 437 kts | 270° |
| 2026-05-08 16:22 | 22.74252 | 47.42229 | 39904 ft | 437 kts | 270° |
| 2026-05-08 16:23 | 22.74781 | 47.35659 | 39908 ft | 436 kts | 270° |
| 2026-05-08 16:23 | 22.75306 | 47.29115 | 39911 ft | 435 kts | 270° |
| 2026-05-08 16:24 | 22.75828 | 47.22578 | 39910 ft | 435 kts | 270° |
| 2026-05-08 16:24 | 22.76347 | 47.16034 | 39916 ft | 434 kts | 269° |
| 2026-05-08 16:25 | 22.76864 | 47.09524 | 39914 ft | 433 kts | 269° |
| 2026-05-08 16:25 | 22.77379 | 47.03012 | 39922 ft | 432 kts | 269° |
| 2026-05-08 16:26 | 22.77891 | 46.96511 | 39927 ft | 432 kts | 269° |
| 2026-05-08 16:26 | 22.78401 | 46.90019 | 39931 ft | 432 kts | 269° |
| 2026-05-08 16:27 | 22.78906 | 46.83533 | 39932 ft | 432 kts | 269° |
| 2026-05-08 16:27 | 22.79410 | 46.77033 | 39932 ft | 432 kts | 269° |
| 2026-05-08 16:28 | 22.79912 | 46.70539 | 39932 ft | 432 kts | 269° |
| 2026-05-08 16:28 | 22.80411 | 46.64041 | 39929 ft | 432 kts | 269° |
| 2026-05-08 16:29 | 22.80908 | 46.57537 | 39937 ft | 432 kts | 269° |
| 2026-05-08 16:29 | 22.81402 | 46.51045 | 39932 ft | 431 kts | 269° |
| 2026-05-08 16:30 | 22.81894 | 46.44569 | 39941 ft | 429 kts | 269° |
| 2026-05-08 16:30 | 22.82374 | 46.38160 | 39941 ft | 429 kts | 269° |
| 2026-05-08 16:31 | 22.82851 | 46.31716 | 39938 ft | 428 kts | 269° |
| 2026-05-08 16:31 | 22.83324 | 46.25278 | 39936 ft | 428 kts | 269° |
| 2026-05-08 16:32 | 22.83796 | 46.18830 | 39932 ft | 428 kts | 269° |
| 2026-05-08 16:32 | 22.84268 | 46.12391 | 39929 ft | 428 kts | 269° |
| 2026-05-08 16:33 | 22.84736 | 46.05944 | 39924 ft | 428 kts | 268° |
| 2026-05-08 16:33 | 22.85202 | 45.99500 | 39918 ft | 428 kts | 268° |
| 2026-05-08 16:34 | 22.85665 | 45.93057 | 39927 ft | 427 kts | 268° |
| 2026-05-08 16:34 | 22.86126 | 45.86629 | 39919 ft | 427 kts | 268° |
| 2026-05-08 16:35 | 22.86582 | 45.80196 | 39914 ft | 427 kts | 268° |
| 2026-05-08 16:35 | 22.87036 | 45.73763 | 39923 ft | 427 kts | 268° |
| 2026-05-08 16:36 | 22.87487 | 45.67344 | 39918 ft | 426 kts | 268° |
| 2026-05-08 16:36 | 22.87935 | 45.60923 | 39914 ft | 426 kts | 268° |
| 2026-05-08 16:37 | 22.88381 | 45.54500 | 39914 ft | 426 kts | 268° |
| 2026-05-08 16:37 | 22.88824 | 45.48073 | 39924 ft | 426 kts | 268° |
| 2026-05-08 16:38 | 22.89191 | 45.42737 | 39926 ft | 427 kts | 268° |
| 2026-05-08 16:38 | 22.89704 | 45.35234 | 39935 ft | 425 kts | 268° |
| 2026-05-08 16:39 | 22.90140 | 45.28843 | 39920 ft | 423 kts | 268° |
| 2026-05-08 16:39 | 22.90569 | 45.22482 | 39925 ft | 423 kts | 268° |
| 2026-05-08 16:40 | 22.90997 | 45.16100 | 39929 ft | 423 kts | 268° |
| 2026-05-08 16:40 | 22.91350 | 45.10800 | 39923 ft | 423 kts | 268° |
| 2026-05-08 16:41 | 22.91626 | 45.06631 | 39940 ft | 423 kts | 268° |
| 2026-05-08 16:42 | 22.92254 | 44.97057 | 39934 ft | 423 kts | 268° |
| 2026-05-08 16:42 | 22.92670 | 44.90687 | 39934 ft | 422 kts | 268° |
| 2026-05-08 16:43 | 22.93084 | 44.84325 | 39932 ft | 422 kts | 268° |
| 2026-05-08 16:43 | 22.93492 | 44.78005 | 39933 ft | 422 kts | 268° |
| 2026-05-08 16:44 | 22.94026 | 44.71593 | 39935 ft | 425 kts | 271° |
| 2026-05-08 16:44 | 22.95070 | 44.65285 | 39949 ft | 429 kts | 276° |
| 2026-05-08 16:45 | 22.96679 | 44.59007 | 39952 ft | 433 kts | 281° |
| 2026-05-08 16:45 | 22.98581 | 44.52809 | 39943 ft | 431 kts | 281° |
| 2026-05-08 16:46 | 23.00489 | 44.46616 | 39941 ft | 431 kts | 281° |
| 2026-05-08 16:46 | 23.02394 | 44.40429 | 39953 ft | 431 kts | 281° |
| 2026-05-08 16:47 | 23.04293 | 44.34259 | 39945 ft | 430 kts | 281° |
| 2026-05-08 16:47 | 23.06185 | 44.28092 | 39950 ft | 429 kts | 281° |
| 2026-05-08 16:48 | 23.08071 | 44.21936 | 39956 ft | 429 kts | 280° |
| 2026-05-08 16:48 | 23.09960 | 44.15768 | 39950 ft | 430 kts | 280° |
| 2026-05-08 16:49 | 23.11844 | 44.09597 | 39953 ft | 429 kts | 280° |
| 2026-05-08 16:49 | 23.13725 | 44.03432 | 39957 ft | 429 kts | 280° |
| 2026-05-08 16:50 | 23.15605 | 43.97267 | 39969 ft | 429 kts | 280° |
| 2026-05-08 16:50 | 23.17482 | 43.91095 | 39966 ft | 429 kts | 280° |
| 2026-05-08 16:51 | 23.19352 | 43.84935 | 39974 ft | 429 kts | 280° |
| 2026-05-08 16:51 | 23.21223 | 43.78773 | 39982 ft | 428 kts | 279° |
| 2026-05-08 16:52 | 23.23092 | 43.72589 | 39990 ft | 432 kts | 280° |
| 2026-05-08 16:52 | 23.27206 | 43.58965 | 40027 ft | 441 kts | 280° |
| 2026-05-08 16:53 | 23.31041 | 43.46250 | 39992 ft | 433 kts | 279° |
| 2026-05-08 16:53 | 23.34927 | 43.33285 | 40014 ft | 431 kts | 279° |
| 2026-05-08 16:54 | 23.38878 | 43.20068 | 40030 ft | 432 kts | 279° |
| 2026-05-08 16:54 | 23.42845 | 43.06729 | 40033 ft | 434 kts | 279° |
| 2026-05-08 16:55 | 23.47288 | 42.91720 | 40037 ft | 436 kts | 278° |
| 2026-05-08 16:55 | 23.51506 | 42.77430 | 40043 ft | 436 kts | 278° |
| 2026-05-08 16:56 | 23.55566 | 42.63637 | 40042 ft | 436 kts | 278° |
| 2026-05-08 16:56 | 23.59417 | 42.50527 | 40044 ft | 435 kts | 278° |
| 2026-05-08 16:57 | 23.64088 | 42.34580 | 40047 ft | 432 kts | 277° |
| 2026-05-08 16:57 | 23.68376 | 42.19806 | 40046 ft | 432 kts | 277° |
| 2026-05-08 16:58 | 23.72568 | 42.05318 | 40042 ft | 428 kts | 277° |
| 2026-05-08 16:58 | 23.76468 | 41.91810 | 40036 ft | 425 kts | 277° |
| 2026-05-08 16:59 | 23.80165 | 41.78991 | 40034 ft | 425 kts | 277° |
| 2026-05-08 16:59 | 23.84149 | 41.65116 | 40025 ft | 424 kts | 277° |
| 2026-05-08 17:00 | 23.87885 | 41.52030 | 40033 ft | 424 kts | 277° |
| 2026-05-08 17:00 | 23.92030 | 41.37427 | 40017 ft | 424 kts | 277° |
| 2026-05-08 17:01 | 23.96164 | 41.22826 | 40012 ft | 424 kts | 277° |
| 2026-05-08 17:01 | 23.99576 | 41.10750 | 40019 ft | 424 kts | 278° |
| 2026-05-08 17:02 | 24.03669 | 40.96237 | 39889 ft | 419 kts | 278° |
| 2026-05-08 17:02 | 24.05512 | 40.89660 | 38440 ft | 425 kts | 278° |
| 2026-05-08 17:02 | 24.07406 | 40.82817 | 36455 ft | 437 kts | 280° |
| 2026-05-08 17:03 | 24.09798 | 40.74253 | 34365 ft | 448 kts | 282° |
| 2026-05-08 17:03 | 24.11963 | 40.66527 | 32326 ft | 456 kts | 283° |
| 2026-05-08 17:03 | 24.13906 | 40.59566 | 30509 ft | 464 kts | 284° |
| 2026-05-08 17:03 | 24.17057 | 40.51170 | 28223 ft | 474 kts | 300° |
| 2026-05-08 17:04 | 24.22901 | 40.44080 | 26982 ft | 461 kts | 313° |
| 2026-05-08 17:04 | 24.29894 | 40.36682 | 25322 ft | 447 kts | 312° |
| 2026-05-08 17:04 | 24.36842 | 40.29230 | 23671 ft | 436 kts | 312° |
| 2026-05-08 17:04 | 24.43370 | 40.22194 | 22069 ft | 421 kts | 312° |
| 2026-05-08 17:05 | 24.50297 | 40.14719 | 20788 ft | 397 kts | 312° |
| 2026-05-08 17:05 | 24.56701 | 40.07795 | 20056 ft | 365 kts | 311° |
| 2026-05-08 17:05 | 24.59190 | 40.00202 | 19278 ft | 322 kts | 258° |
| 2026-05-08 17:05 | 24.57950 | 39.93209 | 18422 ft | 310 kts | 259° |
| 2026-05-08 17:06 | 24.56907 | 39.85522 | 17432 ft | 293 kts | 255° |
| 2026-05-08 17:06 | 24.52614 | 39.82325 | 16225 ft | 294 kts | 173° |
| 2026-05-08 17:06 | 24.47751 | 39.83518 | 15190 ft | 301 kts | 170° |
| 2026-05-08 17:06 | 24.43226 | 39.84531 | 14202 ft | 305 kts | 171° |
| 2026-05-08 17:07 | 24.38053 | 39.85632 | 12987 ft | 311 kts | 171° |
| 2026-05-08 17:07 | 24.33270 | 39.86646 | 11883 ft | 315 kts | 170° |
| 2026-05-08 17:07 | 24.27929 | 39.87775 | 10653 ft | 319 kts | 170° |
| 2026-05-08 17:07 | 24.23271 | 39.88732 | 9543 ft | 325 kts | 174° |
| 2026-05-08 17:08 | 24.18932 | 39.86655 | 8582 ft | 318 kts | 237° |
| 2026-05-08 17:08 | 24.18670 | 39.80642 | 7841 ft | 308 kts | 278° |
| 2026-05-08 17:08 | 24.22718 | 39.76724 | 6918 ft | 313 kts | 353° |
| 2026-05-08 17:08 | 24.27512 | 39.76525 | 6197 ft | 306 kts | 352° |
| 2026-05-08 17:09 | 24.32341 | 39.75698 | 5421 ft | 297 kts | 346° |
| 2026-05-08 17:09 | 24.37368 | 39.74627 | 5028 ft | 273 kts | 345° |
| 2026-05-08 17:09 | 24.41815 | 39.73686 | 5043 ft | 245 kts | 346° |
| 2026-05-08 17:09 | 24.46759 | 39.72630 | 5049 ft | 246 kts | 346° |
| 2026-05-08 17:10 | 24.51762 | 39.71570 | 5051 ft | 244 kts | 346° |
| 2026-05-08 17:10 | 24.56666 | 39.70509 | 5054 ft | 246 kts | 346° |
| 2026-05-08 17:10 | 24.62386 | 39.69284 | 5023 ft | 244 kts | 346° |
| 2026-05-08 17:10 | 24.68029 | 39.68064 | 5019 ft | 245 kts | 346° |
| 2026-05-08 17:11 | 24.72376 | 39.67132 | 5018 ft | 245 kts | 346° |
| 2026-05-08 17:11 | 24.76107 | 39.66327 | 5015 ft | 247 kts | 346° |
| 2026-05-08 17:11 | 24.80509 | 39.65377 | 5000 ft | 247 kts | 346° |
| 2026-05-08 17:11 | 24.84735 | 39.67648 | 5024 ft | 258 kts | 70° |
| 2026-05-08 17:12 | 24.84943 | 39.73277 | 5038 ft | 262 kts | 94° |
| 2026-05-08 17:12 | 24.84738 | 39.78886 | 5015 ft | 260 kts | 93° |
| 2026-05-08 17:12 | 24.84522 | 39.84085 | 5023 ft | 265 kts | 94° |
| 2026-05-08 17:12 | 24.84256 | 39.89650 | 6538 ft | 267 kts | 94° |
| 2026-05-08 17:13 | 24.84104 | 39.94751 | 7033 ft | 266 kts | 94° |
| 2026-05-08 17:13 | 24.83938 | 40.00838 | 7030 ft | 267 kts | 94° |
| 2026-05-08 17:13 | 24.83782 | 40.06479 | 7025 ft | 267 kts | 94° |
| 2026-05-08 17:13 | 24.83623 | 40.11446 | 7030 ft | 266 kts | 94° |
| 2026-05-08 17:14 | 24.83482 | 40.15836 | 7036 ft | 268 kts | 94° |
| 2026-05-08 17:14 | 24.83265 | 40.20347 | 7029 ft | 265 kts | 107° |
| 2026-05-08 17:14 | 24.80309 | 40.22843 | 7042 ft | 243 kts | 186° |
| 2026-05-08 17:14 | 24.77153 | 40.20931 | 7037 ft | 236 kts | 240° |
| 2026-05-08 17:15 | 24.77079 | 40.16821 | 7032 ft | 244 kts | 300° |
| 2026-05-08 17:15 | 24.80454 | 40.14911 | 7030 ft | 262 kts | 5° |
| 2026-05-08 17:15 | 24.83415 | 40.17394 | 7033 ft | 268 kts | 72° |
| 2026-05-08 17:15 | 24.82894 | 40.21150 | 7041 ft | 248 kts | 134° |
| 2026-05-08 17:16 | 24.79894 | 40.22617 | 7046 ft | 233 kts | 189° |
| 2026-05-08 17:16 | 24.77206 | 40.20776 | 7035 ft | 225 kts | 240° |
| 2026-05-08 17:16 | 24.75598 | 40.17842 | 7033 ft | 226 kts | 219° |
| 2026-05-08 17:16 | 24.72395 | 40.17137 | 7036 ft | 239 kts | 169° |
| 2026-05-08 17:17 | 24.69344 | 40.16597 | 7020 ft | 224 kts | 226° |
| 2026-05-08 17:17 | 24.67514 | 40.13756 | 7038 ft | 225 kts | 231° |
| 2026-05-08 17:17 | 24.65229 | 40.11292 | 7031 ft | 226 kts | 220° |
| 2026-05-08 17:17 | 24.62375 | 40.08984 | 7017 ft | 231 kts | 214° |
| 2026-05-08 17:18 | 24.59436 | 40.06892 | 7035 ft | 233 kts | 208° |
| 2026-05-08 17:18 | 24.56096 | 40.06421 | 7020 ft | 231 kts | 193° |
| 2026-05-08 17:18 | 24.52870 | 40.05340 | 7035 ft | 231 kts | 199° |
| 2026-05-08 17:18 | 24.49713 | 40.04153 | 7028 ft | 230 kts | 199° |
| 2026-05-08 17:19 | 24.46651 | 40.02995 | 7043 ft | 233 kts | 200° |
| 2026-05-08 17:19 | 24.43586 | 40.01886 | 7037 ft | 227 kts | 200° |
| 2026-05-08 17:19 | 24.40492 | 40.00794 | 7028 ft | 229 kts | 199° |
| 2026-05-08 17:19 | 24.37463 | 39.99719 | 7032 ft | 227 kts | 200° |
| 2026-05-08 17:20 | 24.34393 | 39.98624 | 6532 ft | 233 kts | 200° |
| 2026-05-08 17:20 | 24.31171 | 39.97523 | 6017 ft | 228 kts | 200° |
| 2026-05-08 17:20 | 24.28046 | 39.96486 | 6027 ft | 227 kts | 199° |
| 2026-05-08 17:20 | 24.24957 | 39.95465 | 6037 ft | 228 kts | 199° |
| 2026-05-08 17:21 | 24.21901 | 39.94443 | 6018 ft | 228 kts | 199° |
| 2026-05-08 17:21 | 24.18829 | 39.93366 | 5995 ft | 208 kts | 210° |
| 2026-05-08 17:21 | 24.16987 | 39.90942 | 6019 ft | 201 kts | 261° |
| 2026-05-08 17:21 | 24.17144 | 39.87735 | 6045 ft | 202 kts | 275° |
| 2026-05-08 17:22 | 24.17728 | 39.84445 | 6005 ft | 204 kts | 298° |
| 2026-05-08 17:22 | 24.20062 | 39.82419 | 6044 ft | 213 kts | 326° |
| 2026-05-08 17:22 | 24.22762 | 39.80791 | 6034 ft | 213 kts | 326° |
| 2026-05-08 17:22 | 24.25512 | 39.79120 | 6024 ft | 214 kts | 327° |
| 2026-05-08 17:23 | 24.28194 | 39.77430 | 6045 ft | 200 kts | 325° |
| 2026-05-08 17:23 | 24.31125 | 39.76023 | 6051 ft | 204 kts | 342° |
| 2026-05-08 17:23 | 24.35531 | 39.75046 | 5495 ft | 202 kts | 345° |
| 2026-05-08 17:23 | 24.39743 | 39.74156 | 4756 ft | 188 kts | 345° |
| 2026-05-08 17:24 | 24.43595 | 39.73331 | 4020 ft | 165 kts | 345° |
| 2026-05-08 17:24 | 24.47090 | 39.72583 | 3418 ft | 162 kts | 344° |
| 2026-05-08 17:24 | 24.50164 | 39.71926 | 2864 ft | 162 kts | 346° |
| 2026-05-08 17:24 | 24.53159 | 39.71316 | 2469 ft | 166 kts | 355° |
| 2026-05-08 17:25 | 24.55988 | 39.71233 | 3308 ft | 198 kts | 26° |
| 2026-05-08 17:25 | 24.59584 | 39.74083 | 5418 ft | 207 kts | 34° |
| 2026-05-08 17:25 | 24.63666 | 39.77426 | 8057 ft | 217 kts | 39° |
| 2026-05-08 17:25 | 24.64730 | 39.81822 | 8625 ft | 293 kts | 110° |
| 2026-05-08 17:26 | 24.63674 | 39.83901 | 8651 ft | 329 kts | 125° |
| 2026-05-08 17:26 | 24.62649 | 39.86282 | 8604 ft | 347 kts | 106° |
| 2026-05-08 17:26 | 24.62495 | 39.88863 | 8600 ft | 336 kts | 84° |
| 2026-05-08 17:26 | 24.63175 | 39.91263 | 8602 ft | 322 kts | 69° |
| 2026-05-08 17:27 | 24.63729 | 39.93570 | 8455 ft | 306 kts | 92° |
| 2026-05-08 17:27 | 24.63233 | 39.95730 | 8275 ft | 286 kts | 126° |
| 2026-05-08 17:27 | 24.61827 | 39.97157 | 8080 ft | 267 kts | 160° |
| 2026-05-08 17:27 | 24.60104 | 39.97668 | 8038 ft | 250 kts | 175° |
| 2026-05-08 17:28 | 24.58414 | 39.97821 | 8038 ft | 238 kts | 178° |
| 2026-05-08 17:28 | 24.56812 | 39.98014 | 8022 ft | 226 kts | 173° |
| 2026-05-08 17:28 | 24.55280 | 39.98295 | 8022 ft | 224 kts | 181° |
| 2026-05-08 17:28 | 24.53846 | 39.97842 | 8004 ft | 217 kts | 221° |
| 2026-05-08 17:29 | 24.52893 | 39.96536 | 8055 ft | 214 kts | 235° |
| 2026-05-08 17:29 | 24.52115 | 39.95227 | 8023 ft | 200 kts | 235° |
| 2026-05-08 17:29 | 24.51351 | 39.93989 | 8051 ft | 195 kts | 234° |
| 2026-05-08 17:29 | 24.50562 | 39.92749 | 8070 ft | 195 kts | 233° |
| 2026-05-08 17:30 | 24.49781 | 39.91553 | 8046 ft | 195 kts | 232° |
| 2026-05-08 17:30 | 24.48919 | 39.90413 | 8036 ft | 195 kts | 215° |
| 2026-05-08 17:30 | 24.47661 | 39.89886 | 8047 ft | 196 kts | 192° |
| 2026-05-08 17:30 | 24.46307 | 39.89695 | 8051 ft | 196 kts | 188° |
| 2026-05-08 17:31 | 24.44949 | 39.89562 | 8045 ft | 196 kts | 187° |
| 2026-05-08 17:31 | 24.43586 | 39.89436 | 8042 ft | 197 kts | 187° |
| 2026-05-08 17:31 | 24.42220 | 39.89309 | 8045 ft | 197 kts | 187° |
| 2026-05-08 17:31 | 24.40856 | 39.89183 | 8038 ft | 197 kts | 187° |
| 2026-05-08 17:32 | 24.39501 | 39.89066 | 8040 ft | 195 kts | 187° |
| 2026-05-08 17:32 | 24.38144 | 39.88950 | 8037 ft | 195 kts | 187° |
| 2026-05-08 17:32 | 24.36790 | 39.88833 | 8036 ft | 195 kts | 187° |
| 2026-05-08 17:32 | 24.36332 | 39.88795 | 8029 ft | 196 kts | 187° |
| 2026-05-08 17:33 | 24.34059 | 39.88598 | 8033 ft | 198 kts | 187° |
| 2026-05-08 17:33 | 24.32692 | 39.88474 | 7982 ft | 197 kts | 187° |
| 2026-05-08 17:33 | 24.31326 | 39.88350 | 7747 ft | 196 kts | 187° |
| 2026-05-08 17:33 | 24.29965 | 39.88234 | 7505 ft | 195 kts | 187° |
| 2026-05-08 17:34 | 24.28612 | 39.88129 | 7272 ft | 195 kts | 187° |
| 2026-05-08 17:34 | 24.27257 | 39.88028 | 7042 ft | 196 kts | 187° |
| 2026-05-08 17:34 | 24.25900 | 39.87928 | 6794 ft | 195 kts | 187° |
| 2026-05-08 17:34 | 24.24629 | 39.87526 | 6532 ft | 190 kts | 218° |
| 2026-05-08 17:35 | 24.23908 | 39.86386 | 6314 ft | 188 kts | 256° |
| 2026-05-08 17:35 | 24.24038 | 39.84947 | 6079 ft | 193 kts | 292° |
| 2026-05-08 17:35 | 24.24773 | 39.83695 | 6045 ft | 198 kts | 302° |
| 2026-05-08 17:35 | 24.25644 | 39.82483 | 6051 ft | 211 kts | 304° |
| 2026-05-08 17:36 | 24.26633 | 39.81169 | 6059 ft | 234 kts | 308° |
| 2026-05-08 17:36 | 24.27795 | 39.79913 | 6042 ft | 233 kts | 313° |
| 2026-05-08 17:36 | 24.28952 | 39.78713 | 6037 ft | 232 kts | 314° |
| 2026-05-08 17:36 | 24.30094 | 39.77528 | 6039 ft | 231 kts | 314° |
| 2026-05-08 17:37 | 24.31352 | 39.76419 | 6028 ft | 233 kts | 325° |
| 2026-05-08 17:37 | 24.32856 | 39.75666 | 5973 ft | 237 kts | 338° |
| 2026-05-08 17:37 | 24.34448 | 39.75223 | 5736 ft | 244 kts | 345° |
| 2026-05-08 17:37 | 24.36170 | 39.74874 | 5416 ft | 254 kts | 347° |
| 2026-05-08 17:38 | 24.37892 | 39.74542 | 5090 ft | 249 kts | 347° |
| 2026-05-08 17:38 | 24.39586 | 39.74197 | 4779 ft | 245 kts | 346° |
| 2026-05-08 17:38 | 24.41248 | 39.73843 | 4444 ft | 241 kts | 346° |
| 2026-05-08 17:38 | 24.42874 | 39.73491 | 4152 ft | 233 kts | 346° |
| 2026-05-08 17:39 | 24.44420 | 39.73158 | 3886 ft | 221 kts | 346° |
| 2026-05-08 17:39 | 24.45841 | 39.72850 | 3663 ft | 218 kts | 346° |
| 2026-05-08 17:39 | 24.47324 | 39.72530 | 3240 ft | 216 kts | 345° |
| 2026-05-08 17:39 | 24.48796 | 39.72204 | 2693 ft | 212 kts | 345° |
| 2026-05-08 17:40 | 24.50127 | 39.71890 | 2742 ft | 180 kts | 347° |
| 2026-05-08 17:40 | 24.51334 | 39.71690 | 2632 ft | 175 kts | 349° |
| 2026-05-08 17:40 | 24.52496 | 39.71455 | 2400 ft | 162 kts | 346° |
| 2026-05-08 17:40 | 24.54037 | 39.71301 | 2372 ft | 158 kts | 355° |
| 2026-05-08 17:41 | 24.55479 | 39.71132 | 3033 ft | 169 kts | 348° |
| 2026-05-08 17:41 | 24.56692 | 39.71105 | 3586 ft | 182 kts | 14° |
| 2026-05-08 17:41 | 24.57767 | 39.71860 | 4113 ft | 191 kts | 45° |
| 2026-05-08 17:41 | 24.58407 | 39.73149 | 4534 ft | 195 kts | 75° |
| 2026-05-08 17:42 | 24.58467 | 39.74638 | 4989 ft | 197 kts | 103° |
| 2026-05-08 17:42 | 24.57934 | 39.76017 | 5479 ft | 195 kts | 130° |
| 2026-05-08 17:42 | 24.56953 | 39.77016 | 5986 ft | 194 kts | 146° |
| 2026-05-08 17:42 | 24.55849 | 39.77921 | 6427 ft | 200 kts | 148° |
| 2026-05-08 17:43 | 24.55105 | 39.78510 | 6733 ft | 203 kts | 148° |
| 2026-05-08 17:43 | 24.53934 | 39.79403 | 7158 ft | 211 kts | 149° |
| 2026-05-08 17:43 | 24.52205 | 39.80650 | 7636 ft | 231 kts | 151° |
| 2026-05-08 17:43 | 24.50820 | 39.81599 | 8097 ft | 238 kts | 152° |
| 2026-05-08 17:44 | 24.49443 | 39.82498 | 8583 ft | 242 kts | 153° |
| 2026-05-08 17:44 | 24.47934 | 39.83415 | 9073 ft | 223 kts | 154° |
| 2026-05-08 17:44 | 24.46591 | 39.84179 | 8897 ft | 213 kts | 157° |
| 2026-05-08 17:44 | 24.45202 | 39.84660 | 8577 ft | 208 kts | 178° |
| 2026-05-08 17:45 | 24.43828 | 39.84361 | 8110 ft | 208 kts | 211° |
| 2026-05-08 17:45 | 24.42878 | 39.83187 | 7576 ft | 215 kts | 253° |
| 2026-05-08 17:45 | 24.43036 | 39.81533 | 6898 ft | 231 kts | 297° |
| 2026-05-08 17:45 | 24.44250 | 39.80314 | 6302 ft | 242 kts | 323° |
| 2026-05-08 17:46 | 24.45417 | 39.79041 | 5735 ft | 236 kts | 300° |
| 2026-05-08 17:46 | 24.46188 | 39.77450 | 5169 ft | 230 kts | 297° |
| 2026-05-08 17:46 | 24.46947 | 39.76013 | 5074 ft | 203 kts | 300° |
| 2026-05-08 17:46 | 24.47694 | 39.74792 | 4892 ft | 184 kts | 304° |
| 2026-05-08 17:47 | 24.48483 | 39.73731 | 4543 ft | 178 kts | 304° |
| 2026-05-08 17:47 | 24.49336 | 39.72663 | 3863 ft | 194 kts | 321° |
| 2026-05-08 17:47 | 24.50584 | 39.71999 | 3200 ft | 206 kts | 336° |
| 2026-05-08 17:47 | 24.51522 | 39.71680 | 2801 ft | 209 kts | 343° |
| 2026-05-08 17:48 | 24.53795 | 39.71177 | 2245 ft | 185 kts | 348° |
| 2026-05-08 17:48 | 24.54824 | 39.70932 | 2146 ft | 167 kts | 347° |
| 2026-05-08 17:48 | 24.55850 | 39.70715 | 2122 ft | 121 kts | 351° |
| 2026-05-08 17:48 | 24.56471 | 39.70607 | 2122 ft | 61 kts | 7° |
| 2026-05-08 17:49 | 24.56675 | 39.70730 | 2115 ft | 19 kts | 113° |
| 2026-05-08 17:49 | 24.56560 | 39.70757 | 2115 ft | 11 kts | 170° |
| 2026-05-08 17:49 | 24.56535 | 39.70761 | 2116 ft | 2 kts | 171° |
| 2026-05-08 17:49 | 24.56511 | 39.70766 | 2116 ft | 4 kts | 171° |
| 2026-05-08 17:50 | 24.56452 | 39.70776 | 2116 ft | 8 kts | 171° |
| 2026-05-08 17:50 | 24.56367 | 39.70792 | 2116 ft | 10 kts | 171° |
| 2026-05-08 17:50 | 24.56264 | 39.70814 | 2116 ft | 13 kts | 168° |
| 2026-05-08 17:50 | 24.56150 | 39.70839 | 2116 ft | 16 kts | 168° |
| 2026-05-08 17:51 | 24.56013 | 39.70895 | 2115 ft | 18 kts | 134° |
| 2026-05-08 17:51 | 24.55989 | 39.71042 | 2113 ft | 20 kts | 77° |
| 2026-05-08 17:51 | 24.56009 | 39.71170 | 2113 ft | 0 kts | 100° |
| 2026-05-08 17:51 | 24.56022 | 39.71087 | 2113 ft | 0 kts | 101° |
| 2026-05-08 17:52 | 24.56021 | 39.71092 | 2113 ft | 1 kts | 117° |
| 2026-05-08 17:52 | 24.56019 | 39.71094 | 2113 ft | 0 kts | 127° |